Zim Mumbai — P3BA7 — position and weather

sailwx.info

Track history (hours):
 
Tides and Currents Weather Stations Pressure Air Temp Water Temp Dewpoint Dewpoint Depression Visibility Wind Speed Wind Dir Waves Ship Positions

Zim Mumbai

Last reported at 2015-Jun-30 05:09 UTC. Time now 2015-Jul-07 13:13 UTC.
Position N 39°57' W 030°53'.

Length 195.7 m; beam 32.3 m; draft 11.5 m.

Type: Ship (hazmat cat B). MMSI: 212160000.

Date/timePositionNaut miles runAvg speedWind from/ knotsBaromVisibWave heightAir tempDewpointWater temp
2015-Jun-30 05:09N 39°57' W 030°53'4516.6
2015-Jun-30 02:26N 39°47' W 029°56'1517.0
2015-Jun-30 01:33N 39°44' W 029°36'1717.3
2015-Jun-30 00:32N 39°42' W 029°14'1616.7
2015-Jun-29 23:34N 39°40' W 028°53'1816.5
2015-Jun-29 22:27N 39°38' W 028°29'1415.9
2015-Jun-29 21:33N 39°37' W 028°11'1615.9
2015-Jun-29 20:31N 39°36' W 027°49'71317.4
2015-Jun-28 03:33N 38°13' W 012°39'1917.9
2015-Jun-28 02:28N 38°11' W 012°15'1718.1
2015-Jun-28 01:33N 38°09' W 011°54'1818.2
2015-Jun-28 00:33N 38°06' W 011°31'1818.2
2015-Jun-27 23:33N 38°04' W 011°08'1818.0
2015-Jun-27 22:32N 38°02' W 010°45'1717.6
2015-Jun-27 21:33N 37°60' W 010°23'1817.8
2015-Jun-27 20:33N 37°57' W 010°00'1817.8
2015-Jun-27 19:31N 37°55' W 009°37'1717.6
2015-Jun-27 18:33N 37°52' W 009°16'1716.9
2015-Jun-27 17:32N 37°53' W 008°54'4 0.6
2015-Jun-27 10:32N 37°56' W 008°51'0 0.0
2015-Jun-27 09:30N 37°56' W 008°51'0 0.0
2015-Jun-27 08:31N 37°56' W 008°51'0 0.0
2015-Jun-27 07:30N 37°56' W 008°51'0 0.0
2015-Jun-27 06:33N 37°56' W 008°51'0 0.0
2015-Jun-27 05:30N 37°56' W 008°51'0 0.0
2015-Jun-27 04:33N 37°56' W 008°51'0 0.0
2015-Jun-27 03:30N 37°56' W 008°51'0 0.0
2015-Jun-27 02:33N 37°56' W 008°51'0 0.0
2015-Jun-27 01:30N 37°56' W 008°51'0 0.0
2015-Jun-27 00:33N 37°56' W 008°51'0 0.0
2015-Jun-26 23:29N 37°56' W 008°51'0 0.0
2015-Jun-26 22:33N 37°56' W 008°51'0 0.0
2015-Jun-26 21:29N 37°56' W 008°51'0 0.0
2015-Jun-26 20:33N 37°56' W 008°51'0 0.0
2015-Jun-26 19:30N 37°56' W 008°51'0 0.0
2015-Jun-26 18:33N 37°56' W 008°51'0 0.0
2015-Jun-26 17:27N 37°56' W 008°51'0 0.0
2015-Jun-26 16:33N 37°56' W 008°51'0 0.3
2015-Jun-26 15:33N 37°56' W 008°51'5 4.6
2015-Jun-26 14:33N 37°51' W 008°51'3 3.1
2015-Jun-26 13:33N 37°49' W 008°53'9 8.6
2015-Jun-26 12:33N 37°43' W 009°02'1312.5
2015-Jun-26 11:32N 37°36' W 009°15'9 9.3
2015-Jun-26 10:33N 37°32' W 009°25'10 9.4
2015-Jun-26 09:32N 37°28' W 009°36'9 9.6
2015-Jun-26 08:33N 37°24' W 009°47'10 9.4
2015-Jun-26 07:32N 37°21' W 009°58'10 9.9
2015-Jun-26 06:33N 37°14' W 010°07'1010.3
2015-Jun-26 05:33N 37°06' W 010°16'1312.9
2015-Jun-26 04:33N 36°57' W 010°27'1615.5
2015-Jun-26 03:32N 36°45' W 010°40'2116.1
2015-Jun-26 02:15N 36°30' W 010°58'12916.0
2015-Jun-25 18:14N 34°55' W 012°45'21316.6
2015-Jun-25 05:23N 32°13' W 015°31'1716.6
2015-Jun-25 04:21N 31°60' W 015°43'  
Track history (hours):
 
Tides and Currents Weather Stations Pressure Air Temp Water Temp Dewpoint Dewpoint Depression Visibility Wind Speed Wind Dir Waves Ship Positions

Zim Mumbai

Last reported at 2015-Jun-30 05:09 UTC. Time now 2015-Jul-07 13:13 UTC.
Position N 39°57' W 030°53'.

Length 195.7 m; beam 32.3 m; draft 11.5 m.

Type: Ship (hazmat cat B). MMSI: 212160000.

Date/timePositionNaut miles runAvg speedWind from/ knotsBaromVisibWave heightAir tempDewpointWater temp
2015-Jun-30 05:09N 39°57' W 030°53'4516.6
2015-Jun-30 02:26N 39°47' W 029°56'1517.0
2015-Jun-30 01:33N 39°44' W 029°36'1717.3
2015-Jun-30 00:32N 39°42' W 029°14'1616.7
2015-Jun-29 23:34N 39°40' W 028°53'1816.5
2015-Jun-29 22:27N 39°38' W 028°29'1415.9
2015-Jun-29 21:33N 39°37' W 028°11'1615.9
2015-Jun-29 20:31N 39°36' W 027°49'71317.4
2015-Jun-28 03:33N 38°13' W 012°39'1917.9
2015-Jun-28 02:28N 38°11' W 012°15'1718.1
2015-Jun-28 01:33N 38°09' W 011°54'1818.2
2015-Jun-28 00:33N 38°06' W 011°31'1818.2
2015-Jun-27 23:33N 38°04' W 011°08'1818.0
2015-Jun-27 22:32N 38°02' W 010°45'1717.6
2015-Jun-27 21:33N 37°60' W 010°23'1817.8
2015-Jun-27 20:33N 37°57' W 010°00'1817.8
2015-Jun-27 19:31N 37°55' W 009°37'1717.6
2015-Jun-27 18:33N 37°52' W 009°16'1716.9
2015-Jun-27 17:32N 37°53' W 008°54'4 0.6
2015-Jun-27 10:32N 37°56' W 008°51'0 0.0
2015-Jun-27 09:30N 37°56' W 008°51'0 0.0
2015-Jun-27 08:31N 37°56' W 008°51'0 0.0
2015-Jun-27 07:30N 37°56' W 008°51'0 0.0
2015-Jun-27 06:33N 37°56' W 008°51'0 0.0
2015-Jun-27 05:30N 37°56' W 008°51'0 0.0
2015-Jun-27 04:33N 37°56' W 008°51'0 0.0
2015-Jun-27 03:30N 37°56' W 008°51'0 0.0
2015-Jun-27 02:33N 37°56' W 008°51'0 0.0
2015-Jun-27 01:30N 37°56' W 008°51'0 0.0
2015-Jun-27 00:33N 37°56' W 008°51'0 0.0
2015-Jun-26 23:29N 37°56' W 008°51'0 0.0
2015-Jun-26 22:33N 37°56' W 008°51'0 0.0
2015-Jun-26 21:29N 37°56' W 008°51'0 0.0
2015-Jun-26 20:33N 37°56' W 008°51'0 0.0
2015-Jun-26 19:30N 37°56' W 008°51'0 0.0
2015-Jun-26 18:33N 37°56' W 008°51'0 0.0
2015-Jun-26 17:27N 37°56' W 008°51'0 0.0
2015-Jun-26 16:33N 37°56' W 008°51'0 0.3
2015-Jun-26 15:33N 37°56' W 008°51'5 4.6
2015-Jun-26 14:33N 37°51' W 008°51'3 3.1
2015-Jun-26 13:33N 37°49' W 008°53'9 8.6
2015-Jun-26 12:33N 37°43' W 009°02'1312.5
2015-Jun-26 11:32N 37°36' W 009°15'9 9.3
2015-Jun-26 10:33N 37°32' W 009°25'10 9.4
2015-Jun-26 09:32N 37°28' W 009°36'9 9.6
2015-Jun-26 08:33N 37°24' W 009°47'10 9.4
2015-Jun-26 07:32N 37°21' W 009°58'10 9.9
2015-Jun-26 06:33N 37°14' W 010°07'1010.3
2015-Jun-26 05:33N 37°06' W 010°16'1312.9
2015-Jun-26 04:33N 36°57' W 010°27'1615.5
2015-Jun-26 03:32N 36°45' W 010°40'2116.1
2015-Jun-26 02:15N 36°30' W 010°58'12916.0
2015-Jun-25 18:14N 34°55' W 012°45'21316.6
2015-Jun-25 05:23N 32°13' W 015°31'1716.6
2015-Jun-25 04:21N 31°60' W 015°43'  

Dump ship's entire track history